Terminal Aerodrome Forecast
Issued by NWS Grand Forks, ND

Home | Current Version | Previous Version | Graphics & Text | Print | Product List | Glossary On
Versions: 1 2 3 4 5 6 7 8 9 10 11 12 13 14 15
000
FTUS43 KFGF 261900 AAA
TAFGFK
TAF AMD
KGFK 261939Z 2620/2718 28015G25KT P6SM VCSH BKN050
     FM270000 29016G22KT P6SM VCSH OVC040
     FM270600 32014KT P6SM VCSH BKN025
     FM271400 35017G26KT P6SM BKN025=

USA.gov is the U.S. government's official web portal to all federal, state and local government web resources and services.